sensor_id;sensor_type;location;lat;lon;timestamp;P1;durP1;ratioP1;P2;durP2;ratioP2
11582;SDS011;34299;50.820;4.548;2024-03-25T00:01:03;3.90;;;2.07;;
11582;SDS011;34299;50.820;4.548;2024-03-25T00:03:29;1.80;;;1.70;;
11582;SDS011;34299;50.820;4.548;2024-03-25T00:05:56;1.90;;;1.70;;
11582;SDS011;34299;50.820;4.548;2024-03-25T00:08:22;3.60;;;2.10;;
11582;SDS011;34299;50.820;4.548;2024-03-25T00:10:50;2.77;;;2.23;;
11582;SDS011;34299;50.820;4.548;2024-03-25T00:13:16;2.97;;;1.83;;
11582;SDS011;34299;50.820;4.548;2024-03-25T00:15:45;4.17;;;1.87;;
11582;SDS011;34299;50.820;4.548;2024-03-25T00:18:11;3.63;;;2.37;;
11582;SDS011;34299;50.820;4.548;2024-03-25T00:20:38;4.90;;;2.37;;
11582;SDS011;34299;50.820;4.548;2024-03-25T00:23:04;2.53;;;2.03;;
11582;SDS011;34299;50.820;4.548;2024-03-25T00:25:32;2.80;;;1.83;;
11582;SDS011;34299;50.820;4.548;2024-03-25T00:27:59;3.10;;;2.10;;
11582;SDS011;34299;50.820;4.548;2024-03-25T00:30:26;3.07;;;2.07;;
11582;SDS011;34299;50.820;4.548;2024-03-25T00:32:53;2.93;;;1.73;;
11582;SDS011;34299;50.820;4.548;2024-03-25T00:35:20;12.13;;;2.03;;
11582;SDS011;34299;50.820;4.548;2024-03-25T00:37:46;6.33;;;2.77;;
11582;SDS011;34299;50.820;4.548;2024-03-25T00:40:14;2.83;;;2.00;;
11582;SDS011;34299;50.820;4.548;2024-03-25T00:42:40;4.77;;;2.13;;
11582;SDS011;34299;50.820;4.548;2024-03-25T00:45:09;3.60;;;2.30;;
11582;SDS011;34299;50.820;4.548;2024-03-25T00:47:35;3.40;;;1.83;;
11582;SDS011;34299;50.820;4.548;2024-03-25T00:50:02;4.27;;;2.00;;
11582;SDS011;34299;50.820;4.548;2024-03-25T00:52:29;1.77;;;1.60;;
11582;SDS011;34299;50.820;4.548;2024-03-25T00:54:56;2.03;;;1.73;;
11582;SDS011;34299;50.820;4.548;2024-03-25T00:57:23;5.97;;;2.40;;
11582;SDS011;34299;50.820;4.548;2024-03-25T00:59:50;9.13;;;2.40;;
11582;SDS011;34299;50.820;4.548;2024-03-25T01:02:17;4.67;;;2.63;;
11582;SDS011;34299;50.820;4.548;2024-03-25T01:04:44;2.37;;;1.90;;
11582;SDS011;34299;50.820;4.548;2024-03-25T01:07:11;3.33;;;2.17;;
11582;SDS011;34299;50.820;4.548;2024-03-25T01:09:38;2.23;;;2.10;;
11582;SDS011;34299;50.820;4.548;2024-03-25T01:12:04;1.70;;;1.47;;
11582;SDS011;34299;50.820;4.548;2024-03-25T01:14:32;3.70;;;2.10;;
11582;SDS011;34299;50.820;4.548;2024-03-25T01:16:58;3.23;;;2.10;;
11582;SDS011;34299;50.820;4.548;2024-03-25T01:19:26;4.73;;;1.83;;
11582;SDS011;34299;50.820;4.548;2024-03-25T01:21:53;4.90;;;2.73;;
11582;SDS011;34299;50.820;4.548;2024-03-25T01:24:20;3.13;;;1.83;;
11582;SDS011;34299;50.820;4.548;2024-03-25T01:26:46;3.23;;;1.93;;
11582;SDS011;34299;50.820;4.548;2024-03-25T01:29:13;2.37;;;2.00;;
11582;SDS011;34299;50.820;4.548;2024-03-25T01:31:39;4.97;;;2.77;;
11582;SDS011;34299;50.820;4.548;2024-03-25T01:34:06;3.90;;;2.37;;
11582;SDS011;34299;50.820;4.548;2024-03-25T01:36:34;5.00;;;2.03;;
11582;SDS011;34299;50.820;4.548;2024-03-25T01:39:01;3.30;;;2.07;;
11582;SDS011;34299;50.820;4.548;2024-03-25T01:41:30;6.37;;;2.50;;
11582;SDS011;34299;50.820;4.548;2024-03-25T01:43:57;5.33;;;3.03;;
11582;SDS011;34299;50.820;4.548;2024-03-25T01:46:23;5.47;;;2.43;;
11582;SDS011;34299;50.820;4.548;2024-03-25T01:48:50;2.50;;;1.80;;
11582;SDS011;34299;50.820;4.548;2024-03-25T01:51:18;3.23;;;2.43;;
11582;SDS011;34299;50.820;4.548;2024-03-25T01:53:48;3.77;;;2.10;;
11582;SDS011;34299;50.820;4.548;2024-03-25T01:56:15;4.73;;;2.70;;
11582;SDS011;34299;50.820;4.548;2024-03-25T01:58:43;2.63;;;2.43;;
11582;SDS011;34299;50.820;4.548;2024-03-25T02:01:09;3.97;;;2.50;;
11582;SDS011;34299;50.820;4.548;2024-03-25T02:03:39;2.07;;;1.97;;
11582;SDS011;34299;50.820;4.548;2024-03-25T02:06:06;3.00;;;1.87;;
11582;SDS011;34299;50.820;4.548;2024-03-25T02:08:34;5.63;;;2.47;;
11582;SDS011;34299;50.820;4.548;2024-03-25T02:11:02;2.73;;;2.37;;
11582;SDS011;34299;50.820;4.548;2024-03-25T02:13:29;4.00;;;2.37;;
11582;SDS011;34299;50.820;4.548;2024-03-25T02:15:58;3.40;;;2.37;;
11582;SDS011;34299;50.820;4.548;2024-03-25T02:18:26;3.20;;;2.50;;
11582;SDS011;34299;50.820;4.548;2024-03-25T02:20:52;3.30;;;2.97;;
11582;SDS011;34299;50.820;4.548;2024-03-25T02:23:19;3.83;;;2.70;;
11582;SDS011;34299;50.820;4.548;2024-03-25T02:25:49;5.13;;;2.97;;
11582;SDS011;34299;50.820;4.548;2024-03-25T02:28:16;2.73;;;2.27;;
11582;SDS011;34299;50.820;4.548;2024-03-25T02:30:42;3.03;;;2.70;;
11582;SDS011;34299;50.820;4.548;2024-03-25T02:33:09;5.87;;;2.50;;
11582;SDS011;34299;50.820;4.548;2024-03-25T02:35:36;4.40;;;2.40;;
11582;SDS011;34299;50.820;4.548;2024-03-25T02:38:04;3.30;;;2.67;;
11582;SDS011;34299;50.820;4.548;2024-03-25T02:40:31;4.17;;;2.37;;
11582;SDS011;34299;50.820;4.548;2024-03-25T02:42:59;2.60;;;2.40;;
11582;SDS011;34299;50.820;4.548;2024-03-25T02:45:25;5.70;;;3.27;;
11582;SDS011;34299;50.820;4.548;2024-03-25T02:47:53;4.50;;;3.30;;
11582;SDS011;34299;50.820;4.548;2024-03-25T02:50:21;4.13;;;2.30;;
11582;SDS011;34299;50.820;4.548;2024-03-25T02:52:48;4.17;;;2.80;;
11582;SDS011;34299;50.820;4.548;2024-03-25T02:55:15;2.40;;;2.20;;
11582;SDS011;34299;50.820;4.548;2024-03-25T02:57:42;3.20;;;2.63;;
11582;SDS011;34299;50.820;4.548;2024-03-25T03:00:10;4.50;;;2.77;;
11582;SDS011;34299;50.820;4.548;2024-03-25T03:02:38;8.20;;;3.37;;
11582;SDS011;34299;50.820;4.548;2024-03-25T03:05:04;2.33;;;2.13;;
11582;SDS011;34299;50.820;4.548;2024-03-25T03:07:31;5.30;;;2.87;;
11582;SDS011;34299;50.820;4.548;2024-03-25T03:09:58;4.77;;;3.23;;
11582;SDS011;34299;50.820;4.548;2024-03-25T03:12:25;5.20;;;3.03;;
11582;SDS011;34299;50.820;4.548;2024-03-25T03:14:51;4.27;;;3.00;;
11582;SDS011;34299;50.820;4.548;2024-03-25T03:17:19;4.00;;;2.87;;
11582;SDS011;34299;50.820;4.548;2024-03-25T03:19:46;3.83;;;2.77;;
11582;SDS011;34299;50.820;4.548;2024-03-25T03:22:13;6.23;;;3.53;;
11582;SDS011;34299;50.820;4.548;2024-03-25T03:24:39;4.37;;;2.77;;
11582;SDS011;34299;50.820;4.548;2024-03-25T03:27:06;7.90;;;3.43;;
11582;SDS011;34299;50.820;4.548;2024-03-25T03:29:32;4.97;;;3.30;;
11582;SDS011;34299;50.820;4.548;2024-03-25T03:31:59;6.20;;;3.13;;
11582;SDS011;34299;50.820;4.548;2024-03-25T03:34:27;6.20;;;3.70;;
11582;SDS011;34299;50.820;4.548;2024-03-25T03:36:54;5.30;;;4.07;;
11582;SDS011;34299;50.820;4.548;2024-03-25T03:39:20;9.53;;;4.07;;
11582;SDS011;34299;50.820;4.548;2024-03-25T03:41:47;5.87;;;3.17;;
11582;SDS011;34299;50.820;4.548;2024-03-25T03:44:14;5.97;;;3.77;;
11582;SDS011;34299;50.820;4.548;2024-03-25T03:46:41;6.77;;;3.77;;
11582;SDS011;34299;50.820;4.548;2024-03-25T03:49:07;5.40;;;3.50;;
11582;SDS011;34299;50.820;4.548;2024-03-25T03:51:35;7.43;;;4.57;;
11582;SDS011;34299;50.820;4.548;2024-03-25T03:54:02;7.27;;;3.93;;
11582;SDS011;34299;50.820;4.548;2024-03-25T03:56:29;9.13;;;4.07;;
11582;SDS011;34299;50.820;4.548;2024-03-25T03:58:55;9.17;;;4.50;;
11582;SDS011;34299;50.820;4.548;2024-03-25T04:01:22;6.53;;;4.37;;
11582;SDS011;34299;50.820;4.548;2024-03-25T04:03:48;7.67;;;4.07;;
11582;SDS011;34299;50.820;4.548;2024-03-25T04:06:16;5.63;;;3.23;;
11582;SDS011;34299;50.820;4.548;2024-03-25T04:08:44;5.20;;;3.33;;
11582;SDS011;34299;50.820;4.548;2024-03-25T04:11:11;6.27;;;3.80;;
11582;SDS011;34299;50.820;4.548;2024-03-25T04:13:37;5.83;;;3.87;;
11582;SDS011;34299;50.820;4.548;2024-03-25T04:16:05;8.27;;;4.23;;
11582;SDS011;34299;50.820;4.548;2024-03-25T04:18:32;6.13;;;4.30;;
11582;SDS011;34299;50.820;4.548;2024-03-25T04:20:59;7.57;;;4.23;;
11582;SDS011;34299;50.820;4.548;2024-03-25T04:23:26;8.70;;;4.47;;
11582;SDS011;34299;50.820;4.548;2024-03-25T04:25:54;6.83;;;3.90;;
11582;SDS011;34299;50.820;4.548;2024-03-25T04:28:20;8.87;;;4.77;;
11582;SDS011;34299;50.820;4.548;2024-03-25T04:30:51;9.97;;;4.17;;
11582;SDS011;34299;50.820;4.548;2024-03-25T04:33:18;7.27;;;3.80;;
11582;SDS011;34299;50.820;4.548;2024-03-25T04:35:45;7.77;;;3.77;;
11582;SDS011;34299;50.820;4.548;2024-03-25T04:38:12;13.67;;;4.83;;
11582;SDS011;34299;50.820;4.548;2024-03-25T04:40:38;8.23;;;5.00;;
11582;SDS011;34299;50.820;4.548;2024-03-25T04:43:06;7.23;;;4.10;;
11582;SDS011;34299;50.820;4.548;2024-03-25T04:45:32;8.80;;;5.20;;
11582;SDS011;34299;50.820;4.548;2024-03-25T04:47:58;9.70;;;4.23;;
11582;SDS011;34299;50.820;4.548;2024-03-25T04:50:25;10.60;;;4.90;;
11582;SDS011;34299;50.820;4.548;2024-03-25T04:52:51;12.33;;;5.47;;
11582;SDS011;34299;50.820;4.548;2024-03-25T04:55:17;7.63;;;3.93;;
11582;SDS011;34299;50.820;4.548;2024-03-25T04:57:43;11.33;;;5.03;;
11582;SDS011;34299;50.820;4.548;2024-03-25T05:00:12;7.43;;;4.13;;
11582;SDS011;34299;50.820;4.548;2024-03-25T05:02:38;11.40;;;5.27;;
11582;SDS011;34299;50.820;4.548;2024-03-25T05:05:05;8.97;;;5.40;;
11582;SDS011;34299;50.820;4.548;2024-03-25T05:07:31;9.53;;;4.80;;
11582;SDS011;34299;50.820;4.548;2024-03-25T05:09:58;9.30;;;4.37;;
11582;SDS011;34299;50.820;4.548;2024-03-25T05:12:24;6.77;;;4.03;;
11582;SDS011;34299;50.820;4.548;2024-03-25T05:14:50;9.30;;;5.00;;
11582;SDS011;34299;50.820;4.548;2024-03-25T05:17:18;9.67;;;5.00;;
11582;SDS011;34299;50.820;4.548;2024-03-25T05:19:44;8.87;;;5.83;;
11582;SDS011;34299;50.820;4.548;2024-03-25T05:22:10;12.17;;;4.63;;
11582;SDS011;34299;50.820;4.548;2024-03-25T05:24:37;11.17;;;5.30;;
11582;SDS011;34299;50.820;4.548;2024-03-25T05:27:03;9.20;;;5.23;;
11582;SDS011;34299;50.820;4.548;2024-03-25T05:29:29;12.17;;;5.97;;
11582;SDS011;34299;50.820;4.548;2024-03-25T05:31:56;10.40;;;5.23;;
11582;SDS011;34299;50.820;4.548;2024-03-25T05:34:24;11.07;;;5.80;;
11582;SDS011;34299;50.820;4.548;2024-03-25T05:36:50;8.50;;;4.90;;
11582;SDS011;34299;50.820;4.548;2024-03-25T05:39:17;15.03;;;7.27;;
11582;SDS011;34299;50.820;4.548;2024-03-25T05:41:43;20.03;;;7.13;;
11582;SDS011;34299;50.820;4.548;2024-03-25T05:44:09;13.13;;;6.03;;
11582;SDS011;34299;50.820;4.548;2024-03-25T05:46:36;14.80;;;8.27;;
11582;SDS011;34299;50.820;4.548;2024-03-25T05:49:02;12.20;;;6.00;;
11582;SDS011;34299;50.820;4.548;2024-03-25T05:51:30;10.53;;;5.93;;
11582;SDS011;34299;50.820;4.548;2024-03-25T05:53:56;11.03;;;6.57;;
11582;SDS011;34299;50.820;4.548;2024-03-25T05:56:23;21.13;;;7.60;;
11582;SDS011;34299;50.820;4.548;2024-03-25T05:58:49;14.37;;;6.13;;
11582;SDS011;34299;50.820;4.548;2024-03-25T06:01:15;10.67;;;6.60;;
11582;SDS011;34299;50.820;4.548;2024-03-25T06:03:41;15.87;;;7.53;;
11582;SDS011;34299;50.820;4.548;2024-03-25T06:06:07;13.50;;;6.67;;
11582;SDS011;34299;50.820;4.548;2024-03-25T06:08:35;14.87;;;5.90;;
11582;SDS011;34299;50.820;4.548;2024-03-25T06:11:01;18.27;;;9.20;;
11582;SDS011;34299;50.820;4.548;2024-03-25T06:13:28;13.67;;;7.67;;
11582;SDS011;34299;50.820;4.548;2024-03-25T06:15:54;14.63;;;6.50;;
11582;SDS011;34299;50.820;4.548;2024-03-25T06:18:20;19.10;;;7.37;;
11582;SDS011;34299;50.820;4.548;2024-03-25T06:20:46;11.30;;;6.97;;
11582;SDS011;34299;50.820;4.548;2024-03-25T06:23:21;18.70;;;7.73;;
11582;SDS011;34299;50.820;4.548;2024-03-25T06:25:49;16.17;;;7.87;;
11582;SDS011;34299;50.820;4.548;2024-03-25T06:28:15;13.40;;;7.03;;
11582;SDS011;34299;50.820;4.548;2024-03-25T06:30:42;15.67;;;4.83;;
11582;SDS011;34299;50.820;4.548;2024-03-25T06:33:26;12.40;;;5.30;;
11582;SDS011;34299;50.820;4.548;2024-03-25T06:36:11;15.87;;;5.67;;
11582;SDS011;34299;50.820;4.548;2024-03-25T06:38:38;9.70;;;5.90;;
11582;SDS011;34299;50.820;4.548;2024-03-25T06:41:05;9.73;;;4.93;;
11582;SDS011;34299;50.820;4.548;2024-03-25T06:43:32;11.73;;;5.87;;
11582;SDS011;34299;50.820;4.548;2024-03-25T06:45:58;16.23;;;6.83;;
11582;SDS011;34299;50.820;4.548;2024-03-25T06:48:24;10.03;;;4.50;;
11582;SDS011;34299;50.820;4.548;2024-03-25T06:50:53;15.57;;;5.83;;
11582;SDS011;34299;50.820;4.548;2024-03-25T06:53:20;12.20;;;6.17;;
11582;SDS011;34299;50.820;4.548;2024-03-25T06:55:52;13.57;;;5.70;;
11582;SDS011;34299;50.820;4.548;2024-03-25T06:58:21;16.23;;;6.13;;
11582;SDS011;34299;50.820;4.548;2024-03-25T07:00:47;12.37;;;5.80;;
11582;SDS011;34299;50.820;4.548;2024-03-25T07:03:14;9.17;;;5.43;;
11582;SDS011;34299;50.820;4.548;2024-03-25T07:05:40;10.23;;;5.63;;
11582;SDS011;34299;50.820;4.548;2024-03-25T07:08:06;12.60;;;6.07;;
11582;SDS011;34299;50.820;4.548;2024-03-25T07:10:33;16.97;;;6.23;;
11582;SDS011;34299;50.820;4.548;2024-03-25T07:12:59;11.90;;;4.70;;
11582;SDS011;34299;50.820;4.548;2024-03-25T07:15:27;13.63;;;4.83;;
11582;SDS011;34299;50.820;4.548;2024-03-25T07:17:53;12.77;;;5.97;;
11582;SDS011;34299;50.820;4.548;2024-03-25T07:20:19;16.93;;;6.03;;
11582;SDS011;34299;50.820;4.548;2024-03-25T07:22:46;15.17;;;5.27;;
11582;SDS011;34299;50.820;4.548;2024-03-25T07:25:12;12.13;;;5.80;;
11582;SDS011;34299;50.820;4.548;2024-03-25T07:27:38;11.77;;;5.87;;
11582;SDS011;34299;50.820;4.548;2024-03-25T07:30:05;13.83;;;5.93;;
11582;SDS011;34299;50.820;4.548;2024-03-25T07:32:33;12.07;;;5.60;;
11582;SDS011;34299;50.820;4.548;2024-03-25T07:34:59;13.00;;;6.50;;
11582;SDS011;34299;50.820;4.548;2024-03-25T07:37:25;14.03;;;6.73;;
11582;SDS011;34299;50.820;4.548;2024-03-25T07:39:52;16.33;;;7.50;;
11582;SDS011;34299;50.820;4.548;2024-03-25T07:42:18;10.20;;;5.93;;
11582;SDS011;34299;50.820;4.548;2024-03-25T07:44:44;16.30;;;6.93;;
11582;SDS011;34299;50.820;4.548;2024-03-25T07:47:10;13.67;;;5.43;;
11582;SDS011;34299;50.820;4.548;2024-03-25T07:49:38;8.60;;;5.67;;
11582;SDS011;34299;50.820;4.548;2024-03-25T07:52:05;15.20;;;5.37;;
11582;SDS011;34299;50.820;4.548;2024-03-25T07:54:31;10.43;;;5.40;;
11582;SDS011;34299;50.820;4.548;2024-03-25T07:56:57;10.43;;;6.17;;
11582;SDS011;34299;50.820;4.548;2024-03-25T07:59:24;12.10;;;5.83;;
11582;SDS011;34299;50.820;4.548;2024-03-25T08:01:50;18.17;;;6.77;;
11582;SDS011;34299;50.820;4.548;2024-03-25T08:04:16;16.07;;;5.93;;
11582;SDS011;34299;50.820;4.548;2024-03-25T08:06:43;13.13;;;5.63;;
11582;SDS011;34299;50.820;4.548;2024-03-25T08:09:09;13.07;;;6.10;;
11582;SDS011;34299;50.820;4.548;2024-03-25T08:11:35;12.03;;;6.20;;
11582;SDS011;34299;50.820;4.548;2024-03-25T08:14:01;14.00;;;6.17;;
11582;SDS011;34299;50.820;4.548;2024-03-25T08:16:27;20.40;;;6.83;;
11582;SDS011;34299;50.820;4.548;2024-03-25T08:18:53;15.93;;;6.17;;
11582;SDS011;34299;50.820;4.548;2024-03-25T08:21:19;13.50;;;6.77;;
11582;SDS011;34299;50.820;4.548;2024-03-25T08:23:46;12.97;;;5.40;;
11582;SDS011;34299;50.820;4.548;2024-03-25T08:26:12;12.67;;;6.60;;
11582;SDS011;34299;50.820;4.548;2024-03-25T08:28:38;13.90;;;6.13;;
11582;SDS011;34299;50.820;4.548;2024-03-25T08:31:04;18.37;;;6.77;;
11582;SDS011;34299;50.820;4.548;2024-03-25T08:33:30;13.63;;;6.97;;
11582;SDS011;34299;50.820;4.548;2024-03-25T08:35:56;16.03;;;6.77;;
11582;SDS011;34299;50.820;4.548;2024-03-25T08:38:22;15.50;;;6.77;;
11582;SDS011;34299;50.820;4.548;2024-03-25T08:40:50;11.67;;;6.10;;
11582;SDS011;34299;50.820;4.548;2024-03-25T08:43:16;11.00;;;5.73;;
11582;SDS011;34299;50.820;4.548;2024-03-25T08:45:42;13.50;;;7.07;;
11582;SDS011;34299;50.820;4.548;2024-03-25T08:48:08;13.73;;;6.13;;
11582;SDS011;34299;50.820;4.548;2024-03-25T08:50:34;12.60;;;6.17;;
11582;SDS011;34299;50.820;4.548;2024-03-25T08:53:00;18.53;;;6.23;;
11582;SDS011;34299;50.820;4.548;2024-03-25T08:55:28;10.80;;;5.87;;
11582;SDS011;34299;50.820;4.548;2024-03-25T08:57:55;14.33;;;6.07;;
11582;SDS011;34299;50.820;4.548;2024-03-25T09:00:21;11.83;;;5.30;;
11582;SDS011;34299;50.820;4.548;2024-03-25T09:02:47;11.13;;;4.80;;
11582;SDS011;34299;50.820;4.548;2024-03-25T09:05:13;12.43;;;4.60;;
11582;SDS011;34299;50.820;4.548;2024-03-25T09:07:39;11.27;;;6.07;;
11582;SDS011;34299;50.820;4.548;2024-03-25T09:10:05;9.10;;;5.10;;
11582;SDS011;34299;50.820;4.548;2024-03-25T09:12:50;11.47;;;5.87;;
11582;SDS011;34299;50.820;4.548;2024-03-25T09:15:17;7.83;;;5.37;;
11582;SDS011;34299;50.820;4.548;2024-03-25T09:17:43;10.00;;;4.80;;
11582;SDS011;34299;50.820;4.548;2024-03-25T09:20:10;10.63;;;4.40;;
11582;SDS011;34299;50.820;4.548;2024-03-25T09:22:36;11.80;;;4.33;;
11582;SDS011;34299;50.820;4.548;2024-03-25T09:25:02;10.97;;;4.10;;
11582;SDS011;34299;50.820;4.548;2024-03-25T09:27:28;8.47;;;4.23;;
11582;SDS011;34299;50.820;4.548;2024-03-25T09:29:54;11.10;;;5.53;;
11582;SDS011;34299;50.820;4.548;2024-03-25T09:32:21;11.33;;;4.60;;
11582;SDS011;34299;50.820;4.548;2024-03-25T09:34:47;8.77;;;4.13;;
11582;SDS011;34299;50.820;4.548;2024-03-25T09:37:13;11.83;;;4.17;;
11582;SDS011;34299;50.820;4.548;2024-03-25T09:39:39;8.07;;;3.47;;
11582;SDS011;34299;50.820;4.548;2024-03-25T09:42:06;9.10;;;4.40;;
11582;SDS011;34299;50.820;4.548;2024-03-25T09:44:33;7.80;;;4.13;;
11582;SDS011;34299;50.820;4.548;2024-03-25T09:47:00;7.37;;;3.57;;
11582;SDS011;34299;50.820;4.548;2024-03-25T09:49:28;9.87;;;4.43;;
11582;SDS011;34299;50.820;4.548;2024-03-25T09:51:55;6.70;;;3.77;;
11582;SDS011;34299;50.820;4.548;2024-03-25T09:54:21;7.57;;;4.20;;
11582;SDS011;34299;50.820;4.548;2024-03-25T09:56:47;9.00;;;3.53;;
11582;SDS011;34299;50.820;4.548;2024-03-25T09:59:14;8.50;;;3.70;;
11582;SDS011;34299;50.820;4.548;2024-03-25T10:01:41;4.63;;;3.70;;
11582;SDS011;34299;50.820;4.548;2024-03-25T10:04:08;7.03;;;3.40;;
11582;SDS011;34299;50.820;4.548;2024-03-25T10:06:35;9.07;;;4.70;;
11582;SDS011;34299;50.820;4.548;2024-03-25T10:09:04;7.90;;;3.87;;
11582;SDS011;34299;50.820;4.548;2024-03-25T10:11:31;7.10;;;3.23;;
11582;SDS011;34299;50.820;4.548;2024-03-25T10:13:57;5.43;;;3.33;;
11582;SDS011;34299;50.820;4.548;2024-03-25T10:16:23;10.00;;;3.80;;
11582;SDS011;34299;50.820;4.548;2024-03-25T10:18:49;7.73;;;3.83;;
11582;SDS011;34299;50.820;4.548;2024-03-25T10:21:18;7.20;;;4.13;;
11582;SDS011;34299;50.820;4.548;2024-03-25T10:23:46;8.33;;;3.90;;
11582;SDS011;34299;50.820;4.548;2024-03-25T10:29:01;8.17;;;3.53;;
11582;SDS011;34299;50.820;4.548;2024-03-25T10:31:28;5.37;;;3.83;;
11582;SDS011;34299;50.820;4.548;2024-03-25T10:33:54;5.67;;;3.70;;
11582;SDS011;34299;50.820;4.548;2024-03-25T10:36:21;7.00;;;3.50;;
11582;SDS011;34299;50.820;4.548;2024-03-25T10:38:49;5.77;;;3.27;;
11582;SDS011;34299;50.820;4.548;2024-03-25T10:41:19;7.10;;;3.40;;
11582;SDS011;34299;50.820;4.548;2024-03-25T10:43:47;4.53;;;3.03;;
11582;SDS011;34299;50.820;4.548;2024-03-25T10:46:17;4.60;;;2.47;;
11582;SDS011;34299;50.820;4.548;2024-03-25T10:48:47;4.33;;;2.50;;
11582;SDS011;34299;50.820;4.548;2024-03-25T10:51:18;5.10;;;2.60;;
11582;SDS011;34299;50.820;4.548;2024-03-25T10:53:47;8.40;;;2.50;;
11582;SDS011;34299;50.820;4.548;2024-03-25T10:56:18;5.77;;;2.57;;
11582;SDS011;34299;50.820;4.548;2024-03-25T10:58:46;3.07;;;2.30;;
11582;SDS011;34299;50.820;4.548;2024-03-25T11:01:13;7.27;;;2.67;;
11582;SDS011;34299;50.820;4.548;2024-03-25T11:03:41;7.30;;;2.93;;
11582;SDS011;34299;50.820;4.548;2024-03-25T11:06:08;4.43;;;2.57;;
11582;SDS011;34299;50.820;4.548;2024-03-25T11:08:34;5.77;;;2.63;;
11582;SDS011;34299;50.820;4.548;2024-03-25T11:11:01;4.13;;;2.33;;
11582;SDS011;34299;50.820;4.548;2024-03-25T11:13:27;3.20;;;2.20;;
11582;SDS011;34299;50.820;4.548;2024-03-25T11:15:53;5.03;;;2.20;;
11582;SDS011;34299;50.820;4.548;2024-03-25T11:18:22;6.83;;;2.70;;
11582;SDS011;34299;50.820;4.548;2024-03-25T11:20:59;4.57;;;2.40;;
11582;SDS011;34299;50.820;4.548;2024-03-25T11:23:25;10.07;;;2.97;;
11582;SDS011;34299;50.820;4.548;2024-03-25T11:25:54;3.97;;;2.40;;
11582;SDS011;34299;50.820;4.548;2024-03-25T11:28:27;5.87;;;2.47;;
11582;SDS011;34299;50.820;4.548;2024-03-25T11:30:54;3.93;;;2.83;;
11582;SDS011;34299;50.820;4.548;2024-03-25T11:33:20;3.83;;;2.30;;
11582;SDS011;34299;50.820;4.548;2024-03-25T11:35:46;5.17;;;2.67;;
11582;SDS011;34299;50.820;4.548;2024-03-25T11:38:12;4.57;;;2.50;;
11582;SDS011;34299;50.820;4.548;2024-03-25T11:40:38;4.63;;;2.53;;
11582;SDS011;34299;50.820;4.548;2024-03-25T11:43:07;2.83;;;2.50;;
11582;SDS011;34299;50.820;4.548;2024-03-25T11:45:34;2.90;;;1.93;;
11582;SDS011;34299;50.820;4.548;2024-03-25T11:48:01;3.50;;;1.93;;
11582;SDS011;34299;50.820;4.548;2024-03-25T11:50:27;4.87;;;1.93;;
11582;SDS011;34299;50.820;4.548;2024-03-25T11:52:53;2.10;;;1.87;;
11582;SDS011;34299;50.820;4.548;2024-03-25T11:55:19;3.93;;;1.70;;
11582;SDS011;34299;50.820;4.548;2024-03-25T11:57:45;4.93;;;2.00;;
11582;SDS011;34299;50.820;4.548;2024-03-25T12:00:11;4.07;;;2.00;;
11582;SDS011;34299;50.820;4.548;2024-03-25T12:02:40;3.37;;;1.73;;
11582;SDS011;34299;50.820;4.548;2024-03-25T12:05:08;4.50;;;1.90;;
11582;SDS011;34299;50.820;4.548;2024-03-25T12:07:34;3.07;;;2.07;;
11582;SDS011;34299;50.820;4.548;2024-03-25T12:10:00;3.10;;;1.60;;
11582;SDS011;34299;50.820;4.548;2024-03-25T12:12:45;2.47;;;1.50;;
11582;SDS011;34299;50.820;4.548;2024-03-25T12:15:11;2.83;;;1.70;;
11582;SDS011;34299;50.820;4.548;2024-03-25T12:17:37;3.00;;;2.07;;
11582;SDS011;34299;50.820;4.548;2024-03-25T12:20:05;2.63;;;1.90;;
11582;SDS011;34299;50.820;4.548;2024-03-25T12:22:33;3.17;;;1.57;;
11582;SDS011;34299;50.820;4.548;2024-03-25T12:24:59;3.70;;;1.50;;
11582;SDS011;34299;50.820;4.548;2024-03-25T12:27:27;2.77;;;1.80;;
11582;SDS011;34299;50.820;4.548;2024-03-25T12:29:57;4.33;;;2.10;;
11582;SDS011;34299;50.820;4.548;2024-03-25T12:32:30;3.30;;;1.70;;
11582;SDS011;34299;50.820;4.548;2024-03-25T12:35:03;4.43;;;2.47;;
11582;SDS011;34299;50.820;4.548;2024-03-25T12:37:31;3.33;;;1.80;;
11582;SDS011;34299;50.820;4.548;2024-03-25T12:39:57;2.70;;;1.70;;
11582;SDS011;34299;50.820;4.548;2024-03-25T12:42:24;3.70;;;1.57;;
11582;SDS011;34299;50.820;4.548;2024-03-25T12:44:51;2.43;;;1.10;;
11582;SDS011;34299;50.820;4.548;2024-03-25T12:47:17;2.33;;;1.43;;
11582;SDS011;34299;50.820;4.548;2024-03-25T12:49:43;3.10;;;1.60;;
11582;SDS011;34299;50.820;4.548;2024-03-25T12:52:10;1.77;;;1.50;;
11582;SDS011;34299;50.820;4.548;2024-03-25T12:54:36;2.47;;;1.43;;
11582;SDS011;34299;50.820;4.548;2024-03-25T12:57:02;1.93;;;1.30;;
11582;SDS011;34299;50.820;4.548;2024-03-25T12:59:29;1.57;;;1.43;;
11582;SDS011;34299;50.820;4.548;2024-03-25T13:01:54;2.60;;;1.47;;
11582;SDS011;34299;50.820;4.548;2024-03-25T13:04:21;2.53;;;1.70;;
11582;SDS011;34299;50.820;4.548;2024-03-25T13:06:47;2.50;;;2.30;;
11582;SDS011;34299;50.820;4.548;2024-03-25T13:09:14;2.07;;;1.53;;
11582;SDS011;34299;50.820;4.548;2024-03-25T13:11:40;2.10;;;1.60;;
11582;SDS011;34299;50.820;4.548;2024-03-25T13:14:06;4.43;;;2.20;;
11582;SDS011;34299;50.820;4.548;2024-03-25T13:16:32;2.77;;;2.10;;
11582;SDS011;34299;50.820;4.548;2024-03-25T13:18:58;6.43;;;1.90;;
11582;SDS011;34299;50.820;4.548;2024-03-25T13:21:24;1.70;;;1.30;;
11582;SDS011;34299;50.820;4.548;2024-03-25T13:23:50;3.80;;;1.93;;
11582;SDS011;34299;50.820;4.548;2024-03-25T13:26:18;3.07;;;1.27;;
11582;SDS011;34299;50.820;4.548;2024-03-25T13:28:44;2.93;;;1.30;;
11582;SDS011;34299;50.820;4.548;2024-03-25T13:31:10;1.80;;;1.20;;
11582;SDS011;34299;50.820;4.548;2024-03-25T13:33:37;2.47;;;1.33;;
11582;SDS011;34299;50.820;4.548;2024-03-25T13:36:03;3.40;;;1.60;;
11582;SDS011;34299;50.820;4.548;2024-03-25T13:38:29;1.47;;;1.27;;
11582;SDS011;34299;50.820;4.548;2024-03-25T13:40:55;2.10;;;1.33;;
11582;SDS011;34299;50.820;4.548;2024-03-25T13:43:23;1.67;;;1.30;;
11582;SDS011;34299;50.820;4.548;2024-03-25T13:45:49;3.07;;;1.30;;
11582;SDS011;34299;50.820;4.548;2024-03-25T13:48:15;1.37;;;1.13;;
11582;SDS011;34299;50.820;4.548;2024-03-25T13:50:41;2.13;;;1.20;;
11582;SDS011;34299;50.820;4.548;2024-03-25T13:53:07;1.20;;;1.10;;
11582;SDS011;34299;50.820;4.548;2024-03-25T13:55:34;1.57;;;1.20;;
11582;SDS011;34299;50.820;4.548;2024-03-25T13:58:00;2.30;;;1.30;;
11582;SDS011;34299;50.820;4.548;2024-03-25T14:00:28;3.00;;;1.20;;
11582;SDS011;34299;50.820;4.548;2024-03-25T14:02:56;1.73;;;1.20;;
11582;SDS011;34299;50.820;4.548;2024-03-25T14:05:22;1.70;;;1.20;;
11582;SDS011;34299;50.820;4.548;2024-03-25T14:07:49;2.43;;;1.30;;
11582;SDS011;34299;50.820;4.548;2024-03-25T14:10:15;1.80;;;1.20;;
11582;SDS011;34299;50.820;4.548;2024-03-25T14:12:41;2.20;;;1.00;;
11582;SDS011;34299;50.820;4.548;2024-03-25T14:15:07;3.17;;;1.77;;
11582;SDS011;34299;50.820;4.548;2024-03-25T14:17:35;2.83;;;1.60;;
11582;SDS011;34299;50.820;4.548;2024-03-25T14:20:01;2.73;;;1.30;;
11582;SDS011;34299;50.820;4.548;2024-03-25T14:22:29;2.23;;;1.23;;
11582;SDS011;34299;50.820;4.548;2024-03-25T14:24:55;2.80;;;1.50;;
11582;SDS011;34299;50.820;4.548;2024-03-25T14:27:21;1.47;;;1.17;;
11582;SDS011;34299;50.820;4.548;2024-03-25T14:29:47;2.60;;;1.57;;
11582;SDS011;34299;50.820;4.548;2024-03-25T14:32:13;1.60;;;1.10;;
11582;SDS011;34299;50.820;4.548;2024-03-25T14:34:41;2.00;;;1.40;;
11582;SDS011;34299;50.820;4.548;2024-03-25T14:37:07;1.90;;;1.27;;
11582;SDS011;34299;50.820;4.548;2024-03-25T14:39:33;2.63;;;1.63;;
11582;SDS011;34299;50.820;4.548;2024-03-25T14:41:59;2.20;;;1.20;;
11582;SDS011;34299;50.820;4.548;2024-03-25T14:44:25;3.23;;;1.30;;